Time;durP1;ratioP1;P1;durP2;ratioP2;P2;SDS_P1;SDS_P2;PMS_P1;PMS_P2;Temp;Humidity;BMP_temperature;BMP_pressure;BME280_temperature;BME280_humidity;BME280_pressure;Samples;Min_cycle;Max_cycle;Signal;HPM_P1;HPM_P2
2022/06/08 00:00:00;;;;;;;8.52;3.35;;;;;;;15.13;100.00;101164.44;7384971;19;20029;-77
2022/06/08 00:02:33;;;;;;;12.27;4.00;;;;;;;15.10;100.00;101161.81;7386631;19;20050;-76
2022/06/08 00:05:04;;;;;;;9.27;4.63;;;;;;;15.08;100.00;101163.56;7386640;19;20527;-75
2022/06/08 00:07:37;;;;;;;10.43;4.30;;;;;;;15.12;100.00;101154.75;7383911;19;20027;-76
2022/06/08 00:10:08;;;;;;;11.10;5.05;;;;;;;15.10;100.00;101155.66;7390604;19;20131;-77
2022/06/08 00:12:38;;;;;;;13.98;5.22;;;;;;;15.11;100.00;101149.47;7398809;19;20389;-76
2022/06/08 00:15:12;;;;;;;10.05;4.97;;;;;;;15.12;100.00;101153.88;7399666;19;20038;-76
2022/06/08 00:17:44;;;;;;;15.57;6.95;;;;;;;15.08;100.00;101141.56;7400350;19;20018;-77
2022/06/08 00:20:18;;;;;;;14.40;6.32;;;;;;;15.09;100.00;101141.56;7398655;19;20010;-76
2022/06/08 00:22:53;;;;;;;14.60;6.68;;;;;;;15.04;100.00;101144.19;7394656;19;20013;-78
2022/06/08 00:25:23;;;;;;;15.45;6.88;;;;;;;15.03;100.00;101137.16;7395250;19;20019;-77
2022/06/08 00:27:53;;;;;;;17.10;7.15;;;;;;;15.04;100.00;101131.00;7392343;19;20014;-76
2022/06/08 00:30:24;;;;;;;15.63;6.53;;;;;;;15.03;100.00;101136.28;7398876;19;20597;-76
2022/06/08 00:32:56;;;;;;;19.75;9.10;;;;;;;15.00;100.00;101131.88;7391719;19;20377;-77
2022/06/08 00:35:25;;;;;;;16.92;8.57;;;;;;;14.99;100.00;101127.47;7381229;19;20379;-78
2022/06/08 00:37:58;;;;;;;19.38;9.07;;;;;;;14.97;100.00;101128.34;7380878;19;20086;-79
2022/06/08 00:40:36;;;;;;;16.80;8.65;;;;;;;14.96;100.00;101119.53;7379469;19;20022;-78
2022/06/08 00:43:06;;;;;;;21.25;11.25;;;;;;;14.96;100.00;101110.75;7380300;19;20047;-78
2022/06/08 00:45:36;;;;;;;22.30;10.20;;;;;;;14.92;100.00;101103.69;7382155;19;20015;-78
2022/06/08 00:48:09;;;;;;;20.90;9.75;;;;;;;14.90;100.00;101100.19;7377346;19;20110;-77
2022/06/08 00:50:45;;;;;;;21.35;10.75;;;;;;;14.89;100.00;101104.59;7382768;19;20612;-77
2022/06/08 00:53:19;;;;;;;29.38;12.02;;;;;;;14.88;100.00;101091.38;7382246;19;20024;-77
2022/06/08 00:55:50;;;;;;;21.23;10.20;;;;;;;14.88;100.00;101089.63;7382218;19;20007;-79
2022/06/08 00:58:24;;;;;;;21.88;10.63;;;;;;;14.89;100.00;101091.38;7383254;19;20018;-77
2022/06/08 01:00:58;;;;;;;22.33;10.73;;;;;;;14.90;100.00;101084.34;7382001;19;20025;-77
2022/06/08 01:03:30;;;;;;;21.75;10.52;;;;;;;14.90;100.00;101090.50;7382832;19;20101;-76
2022/06/08 01:06:03;;;;;;;20.55;10.35;;;;;;;14.90;100.00;101077.28;7383732;19;20014;-76
2022/06/08 01:08:40;;;;;;;21.95;11.10;;;;;;;14.92;100.00;101074.66;7379595;19;20047;-77
2022/06/08 01:11:14;;;;;;;21.15;10.23;;;;;;;14.91;100.00;101075.53;7383155;19;20014;-77
2022/06/08 01:13:45;;;;;;;20.52;10.20;;;;;;;14.93;100.00;101069.38;7383620;19;20419;-77
2022/06/08 01:16:16;;;;;;;15.15;8.55;;;;;;;14.95;100.00;101079.94;7380389;19;20025;-77
2022/06/08 01:18:46;;;;;;;19.52;8.82;;;;;;;14.92;100.00;101067.59;7381722;19;20018;-77
2022/06/08 01:21:49;;;;;;;17.55;8.55;;;;;;;14.89;100.00;101064.97;7381781;19;20007;-76
2022/06/08 01:24:19;;;;;;;16.65;9.57;;;;;;;14.86;100.00;101062.34;7378120;19;20026;-77
2022/06/08 01:26:59;;;;;;;17.30;8.98;;;;;;;14.87;100.00;101061.44;7379305;19;20531;-76
2022/06/08 01:29:32;;;;;;;15.82;8.60;;;;;;;14.84;100.00;101055.28;7381478;19;20451;-77
2022/06/08 01:32:08;;;;;;;20.08;8.98;;;;;;;14.84;100.00;101047.38;7380970;19;20035;-79
2022/06/08 01:34:48;;;;;;;17.08;7.63;;;;;;;14.83;100.00;101040.34;7383113;19;20052;-79
2022/06/08 01:37:34;;;;;;;15.75;8.82;;;;;;;14.76;100.00;101043.84;7380643;19;20019;-78
2022/06/08 01:40:37;;;;;;;18.20;8.55;;;;;;;14.70;100.00;101036.81;7379928;19;20564;-78
2022/06/08 01:43:18;;;;;;;17.00;8.55;;;;;;;14.64;100.00;101045.63;7378080;19;20038;-77
2022/06/08 01:45:58;;;;;;;13.80;7.05;;;;;;;14.58;100.00;101037.69;7379015;19;20015;-77
2022/06/08 01:48:50;;;;;;;18.05;7.80;;;;;;;14.53;100.00;101031.56;7377345;19;20017;-77
2022/06/08 01:51:32;;;;;;;13.77;7.97;;;;;;;14.51;100.00;101021.91;7380228;19;20015;-78
2022/06/08 01:54:14;;;;;;;16.58;7.15;;;;;;;14.49;100.00;101019.25;7378233;19;20014;-77
2022/06/08 01:56:49;;;;;;;12.98;6.55;;;;;;;14.45;100.00;101024.53;7380815;19;20011;-77
2022/06/08 01:59:31;;;;;;;14.35;7.63;;;;;;;14.42;100.00;101012.22;7385304;19;20014;-77
2022/06/08 02:02:10;;;;;;;12.93;6.47;;;;;;;14.39;100.00;101020.97;7387503;19;20018;-77
2022/06/08 02:04:45;;;;;;;12.20;6.80;;;;;;;14.35;100.00;101015.69;7387391;19;20018;-78
2022/06/08 02:07:27;;;;;;;12.45;6.15;;;;;;;14.37;100.00;101008.66;7387316;19;20035;-76
2022/06/08 02:10:07;;;;;;;12.93;5.93;;;;;;;14.35;100.00;101007.78;7389057;19;20014;-77
2022/06/08 02:12:42;;;;;;;15.90;6.57;;;;;;;14.29;100.00;101002.50;7386124;19;20205;-77
2022/06/08 02:15:16;;;;;;;12.45;6.22;;;;;;;14.29;100.00;101005.13;7384674;19;20039;-76
2022/06/08 02:17:53;;;;;;;12.68;5.95;;;;;;;14.25;100.00;100998.09;7388487;19;20014;-78
2022/06/08 02:20:26;;;;;;;11.93;6.07;;;;;;;14.24;100.00;100994.59;7387776;19;20014;-78
2022/06/08 02:22:59;;;;;;;14.15;5.82;;;;;;;14.25;100.00;100990.19;7385615;19;20108;-78
2022/06/08 02:25:39;;;;;;;14.35;6.43;;;;;;;14.22;100.00;100988.44;7386660;19;20052;-77
2022/06/08 02:28:13;;;;;;;12.98;5.63;;;;;;;14.23;100.00;100989.31;7387785;19;20014;-76
2022/06/08 02:30:47;;;;;;;11.20;5.50;;;;;;;14.23;100.00;100979.63;7388168;19;20090;-77
2022/06/08 02:36:15;;;;;;;11.77;6.05;;;;;;;14.23;100.00;100982.28;7387038;19;20014;-77
2022/06/08 02:38:51;;;;;;;10.82;5.78;;;;;;;14.25;100.00;100975.25;7384695;19;20022;-76
2022/06/08 02:41:27;;;;;;;13.07;6.68;;;;;;;14.24;100.00;100980.53;7388139;19;20011;-77
2022/06/08 02:44:02;;;;;;;12.55;5.65;;;;;;;14.22;100.00;100974.38;7388239;19;20042;-77
2022/06/08 02:46:43;;;;;;;12.43;5.68;;;;;;;14.23;100.00;100973.47;7388418;19;20031;-79
2022/06/08 02:49:14;;;;;;;9.52;6.05;;;;;;;14.21;100.00;100972.59;7383593;19;20019;-77
2022/06/08 02:51:48;;;;;;;10.75;5.95;;;;;;;14.23;100.00;100973.47;7388252;19;20018;-77
2022/06/08 02:54:23;;;;;;;13.10;5.63;;;;;;;14.26;100.00;100971.72;7384165;19;20014;-77
2022/06/08 02:57:14;;;;;;;11.95;5.55;;;;;;;14.27;100.00;100965.56;7387143;19;20052;-79
2022/06/08 02:59:53;;;;;;;10.30;5.22;;;;;;;14.32;100.00;100957.66;7387134;19;20015;-78
2022/06/08 03:02:27;;;;;;;9.70;5.10;;;;;;;14.30;100.00;100955.03;7384953;19;20018;-78
2022/06/08 03:05:04;;;;;;;10.55;5.53;;;;;;;14.33;100.00;100959.41;7387787;19;20019;-79
2022/06/08 03:07:39;;;;;;;10.18;5.15;;;;;;;14.31;100.00;100950.63;7384950;19;20046;-79
2022/06/08 03:10:11;;;;;;;10.18;4.97;;;;;;;14.31;100.00;100951.50;7382088;19;20018;-79
2022/06/08 03:12:51;;;;;;;9.85;5.00;;;;;;;14.32;100.00;100952.38;7383360;19;20509;-79
2022/06/08 03:15:25;;;;;;;9.85;4.50;;;;;;;14.32;100.00;100947.09;7384850;19;20487;-78
2022/06/08 03:17:55;;;;;;;14.15;5.00;;;;;;;14.33;100.00;100948.88;7387066;19;20014;-78
2022/06/08 03:20:27;;;;;;;11.85;5.20;;;;;;;14.32;100.00;100947.97;7382723;19;20010;-78
2022/06/08 03:22:57;;;;;;;11.15;4.78;;;;;;;14.34;100.00;100942.72;7380812;19;20007;-78
2022/06/08 03:25:28;;;;;;;10.68;5.10;;;;;;;14.35;100.00;100940.06;7381869;19;20324;-78
2022/06/08 03:28:00;;;;;;;11.38;5.32;;;;;;;14.37;100.00;100945.34;7384198;19;20554;-78
2022/06/08 03:30:30;;;;;;;10.73;4.53;;;;;;;14.40;100.00;100945.34;7385175;19;20468;-78
2022/06/08 03:33:01;;;;;;;11.85;5.20;;;;;;;14.40;100.00;100934.78;7383398;19;20014;-76
2022/06/08 03:35:31;;;;;;;11.18;4.82;;;;;;;14.44;100.00;100943.63;7383667;19;20014;-76
2022/06/08 03:38:01;;;;;;;10.65;5.10;;;;;;;14.45;100.00;100940.97;7383904;19;20017;-76
2022/06/08 03:40:31;;;;;;;10.07;4.93;;;;;;;14.46;100.00;100940.09;7383920;19;20010;-78
2022/06/08 03:43:04;;;;;;;8.70;4.70;;;;;;;14.46;100.00;100932.19;7383311;19;20047;-77
2022/06/08 03:45:41;;;;;;;11.05;4.70;;;;;;;14.48;100.00;100937.44;7384326;19;20014;-77
2022/06/08 03:48:12;;;;;;;10.93;4.53;;;;;;;14.47;100.00;100931.28;7383302;19;20018;-77
2022/06/08 03:50:45;;;;;;;9.60;4.82;;;;;;;14.47;100.00;100939.22;7382176;19;20015;-77
2022/06/08 03:53:19;;;;;;;7.75;4.03;;;;;;;14.45;100.00;100927.78;7382864;19;20014;-77
2022/06/08 03:55:51;;;;;;;9.65;3.75;;;;;;;14.45;100.00;100927.78;7381810;19;22017;-78
2022/06/08 03:58:24;;;;;;;8.48;3.95;;;;;;;14.47;100.00;100931.28;7379804;19;20018;-78
2022/06/08 04:00:56;;;;;;;9.15;4.25;;;;;;;14.47;100.00;100928.66;7385416;19;20010;-77
2022/06/08 04:03:26;;;;;;;8.43;3.80;;;;;;;14.47;100.00;100920.75;7381560;19;20351;-77
2022/06/08 04:05:58;;;;;;;9.50;3.53;;;;;;;14.47;100.00;100920.75;7383473;19;20530;-77
2022/06/08 04:08:28;;;;;;;6.97;3.72;;;;;;;14.50;100.00;100914.56;7382929;19;20051;-77
2022/06/08 04:10:58;;;;;;;7.70;3.50;;;;;;;14.49;100.00;100913.69;7380919;19;20090;-77
2022/06/08 04:13:30;;;;;;;8.60;3.90;;;;;;;14.51;100.00;100909.28;7384415;19;20007;-77
2022/06/08 04:16:01;;;;;;;6.82;3.50;;;;;;;14.51;100.00;100911.94;7386010;19;20680;-76
2022/06/08 04:18:33;;;;;;;7.97;3.90;;;;;;;14.52;100.00;100912.81;7382932;19;20078;-78
2022/06/08 04:21:06;;;;;;;10.10;3.55;;;;;;;14.53;100.00;100915.44;7381853;19;20018;-77
2022/06/08 04:23:38;;;;;;;7.10;3.13;;;;;;;14.57;100.00;100919.81;7385775;19;20015;-77
2022/06/08 04:26:08;;;;;;;7.55;3.72;;;;;;;14.61;100.00;100918.03;7383122;19;20015;-78
2022/06/08 04:28:42;;;;;;;5.93;3.13;;;;;;;14.62;100.00;100917.16;7382720;19;20047;-77
2022/06/08 04:31:12;;;;;;;7.65;3.00;;;;;;;14.66;100.00;100916.28;7385561;19;20030;-76
2022/06/08 04:33:43;;;;;;;6.50;3.05;;;;;;;14.70;100.00;100918.91;7383239;19;20435;-77
2022/06/08 04:36:14;;;;;;;8.98;3.50;;;;;;;14.73;100.00;100916.25;7382977;19;20006;-76
2022/06/08 04:38:44;;;;;;;7.90;3.75;;;;;;;14.75;100.00;100918.91;7383716;19;20419;-76
2022/06/08 04:41:14;;;;;;;7.25;3.42;;;;;;;14.79;100.00;100917.13;7383850;19;20010;-77
2022/06/08 04:43:47;;;;;;;6.80;3.55;;;;;;;14.80;100.00;100913.59;7383571;19;20023;-77
2022/06/08 04:46:18;;;;;;;8.38;3.47;;;;;;;14.86;100.00;100910.94;7383919;19;20134;-79
2022/06/08 04:48:49;;;;;;;7.18;3.65;;;;;;;14.88;100.00;100907.41;7379754;19;20017;-78
2022/06/08 04:51:19;;;;;;;7.53;3.72;;;;;;;14.92;100.00;100900.38;7382171;19;20014;-78
2022/06/08 04:53:49;;;;;;;10.30;3.90;;;;;;;14.91;100.00;100893.31;7382020;19;20051;-78
2022/06/08 04:56:20;;;;;;;7.53;3.90;;;;;;;14.97;100.00;100903.88;7382197;19;20016;-77
2022/06/08 04:58:54;;;;;;;8.20;4.40;;;;;;;14.97;100.00;100901.22;7382980;19;20042;-78
2022/06/08 05:01:24;;;;;;;11.02;4.60;;;;;;;15.01;100.00;100892.41;7383212;19;20270;-78
2022/06/08 05:03:55;;;;;;;9.05;4.30;;;;;;;15.01;100.00;100895.03;7378498;19;20018;-77
2022/06/08 05:06:25;;;;;;;9.02;4.53;;;;;;;15.00;100.00;100896.81;7382828;19;20010;-77
2022/06/08 05:08:56;;;;;;;10.02;5.10;;;;;;;15.03;100.00;100898.56;7379801;19;20014;-78
2022/06/08 05:11:26;;;;;;;12.27;5.57;;;;;;;15.07;100.00;100884.47;7380110;19;20014;-77
2022/06/08 05:13:58;;;;;;;9.05;4.90;;;;;;;15.16;100.00;100884.41;7381396;19;20017;-77
2022/06/08 05:16:28;;;;;;;12.40;5.30;;;;;;;15.08;100.00;100883.56;7382739;19;20018;-78
2022/06/08 05:18:58;;;;;;;11.75;5.32;;;;;;;15.17;100.00;100878.25;7380776;19;20010;-79
2022/06/08 05:21:28;;;;;;;13.15;6.57;;;;;;;15.15;100.00;100881.78;7382280;19;20006;-78
2022/06/08 05:23:59;;;;;;;13.13;6.13;;;;;;;15.16;100.00;100865.91;7382781;19;20033;-78
2022/06/08 05:26:29;;;;;;;12.93;6.10;;;;;;;15.11;100.00;100866.84;7380687;19;20015;-78
2022/06/08 05:29:01;;;;;;;11.52;5.80;;;;;;;15.12;100.00;100863.31;7380978;19;20018;-77
2022/06/08 05:31:31;;;;;;;12.88;6.13;;;;;;;15.13;100.00;100865.94;7380401;19;20009;-77
2022/06/08 05:34:01;;;;;;;13.25;5.72;;;;;;;15.14;100.00;100869.47;7384523;19;20019;-77
2022/06/08 05:36:31;;;;;;;10.18;5.72;;;;;;;15.13;100.00;100865.06;7388495;19;20014;-77
2022/06/08 05:39:00;;;;;;;10.85;5.50;;;;;;;15.22;100.00;100860.59;7389364;19;20011;-76
2022/06/08 05:41:30;;;;;;;12.73;6.05;;;;;;;15.27;100.00;100858.81;7389825;19;20010;-78
2022/06/08 05:44:03;;;;;;;10.27;4.97;;;;;;;15.36;100.00;100853.47;7389393;19;20043;-78
2022/06/08 05:46:33;;;;;;;9.63;5.30;;;;;;;15.48;100.00;100847.25;7386662;19;20021;-78
2022/06/08 05:49:03;;;;;;;9.73;4.70;;;;;;;15.55;100.00;100853.38;7388870;19;20043;-77
2022/06/08 05:51:33;;;;;;;10.55;5.78;;;;;;;15.63;100.00;100855.06;7387341;19;20078;-76
2022/06/08 05:54:03;;;;;;;8.90;4.70;;;;;;;15.71;100.00;100841.78;7387468;19;20021;-78
2022/06/08 05:56:33;;;;;;;10.00;4.93;;;;;;;15.72;100.00;100835.63;7389180;19;20034;-77
2022/06/08 05:59:05;;;;;;;9.25;4.60;;;;;;;15.84;100.00;100837.28;7387069;19;20021;-77
2022/06/08 06:01:36;;;;;;;11.20;4.60;;;;;;;15.88;100.00;100837.25;7388331;19;20740;-77
2022/06/08 06:04:07;;;;;;;8.20;4.00;;;;;;;15.97;100.00;100831.00;7384918;19;20014;-77
2022/06/08 06:06:38;;;;;;;10.93;4.38;;;;;;;16.07;100.00;100822.09;7386956;19;20452;-76
2022/06/08 06:09:09;;;;;;;9.75;4.53;;;;;;;16.19;100.00;100819.31;7385390;19;20522;-76
2022/06/08 06:11:39;;;;;;;8.07;4.28;;;;;;;16.27;100.00;100821.91;7387266;19;20055;-77
2022/06/08 06:14:12;;;;;;;10.82;4.20;;;;;;;16.31;100.00;100810.38;7385182;19;20011;-77
2022/06/08 06:16:42;;;;;;;9.13;4.00;;;;;;;16.45;100.00;100818.19;7385038;19;20022;-77
2022/06/08 06:19:12;;;;;;;8.32;3.95;;;;;;;16.45;100.00;100811.09;7386547;19;20020;-77
2022/06/08 06:21:42;;;;;;;11.77;4.40;;;;;;;16.44;100.00;100805.84;7382949;19;20464;-77
2022/06/08 06:24:17;;;;;;;10.25;3.97;;;;;;;16.51;100.00;100803.09;7382995;19;20011;-77
2022/06/08 06:26:50;;;;;;;8.43;4.20;;;;;;;16.55;100.00;100810.13;7384388;19;20011;-76
2022/06/08 06:29:22;;;;;;;8.43;4.35;;;;;;;16.67;100.00;100804.66;7384570;19;20039;-76
2022/06/08 06:31:56;;;;;;;8.55;4.07;;;;;;;16.57;100.00;100810.97;7384680;19;20011;-76
2022/06/08 06:34:29;;;;;;;10.13;4.10;;;;;;;16.70;100.00;100810.81;7385927;19;20010;-77
2022/06/08 06:36:59;;;;;;;9.98;4.57;;;;;;;16.90;100.00;100817.63;7383656;19;20011;-76
2022/06/08 06:39:29;;;;;;;7.68;4.28;;;;;;;17.09;100.00;100807.66;7384951;19;20066;-76
2022/06/08 06:42:01;;;;;;;10.10;5.18;;;;;;;16.99;100.00;100809.56;7384292;19;20102;-76
2022/06/08 06:44:34;;;;;;;10.63;5.57;;;;;;;16.90;100.00;100807.03;7383583;19;20022;-76
2022/06/08 06:47:03;;;;;;;10.43;5.57;;;;;;;17.03;100.00;100810.38;7381600;19;20007;-78
2022/06/08 06:49:33;;;;;;;12.13;5.50;;;;;;;17.16;99.24;100805.81;7381118;19;20026;-76
2022/06/08 06:52:03;;;;;;;11.18;6.28;;;;;;;17.05;100.00;100799.78;7385030;19;20022;-76
2022/06/08 06:54:34;;;;;;;13.35;6.22;;;;;;;17.04;99.38;100803.31;7385158;19;19998;-76
2022/06/08 06:57:04;;;;;;;12.98;5.95;;;;;;;17.18;100.00;100801.34;7382740;19;20015;-77
2022/06/08 06:59:38;;;;;;;11.52;6.13;;;;;;;17.11;99.65;100792.63;7380396;19;20050;-77
2022/06/08 07:02:13;;;;;;;10.60;5.78;;;;;;;17.35;99.04;100783.44;7381912;19;20070;-75
2022/06/08 07:04:43;;;;;;;12.98;5.95;;;;;;;17.56;98.55;100788.41;7380823;19;20006;-78
2022/06/08 07:07:14;;;;;;;14.65;6.55;;;;;;;17.81;99.05;100783.56;7381977;19;20017;-78
2022/06/08 07:09:44;;;;;;;12.73;6.88;;;;;;;17.96;96.58;100787.72;7384597;19;20044;-78
2022/06/08 07:12:15;;;;;;;13.05;6.65;;;;;;;17.66;96.31;100788.28;7385356;19;20015;-78
2022/06/08 07:14:50;;;;;;;11.52;6.38;;;;;;;17.77;98.58;100781.84;7384687;19;20011;-78
2022/06/08 07:17:20;;;;;;;12.95;6.55;;;;;;;18.09;95.98;100785.72;7383792;19;20002;-77
2022/06/08 07:19:50;;;;;;;10.73;6.57;;;;;;;18.27;95.22;100775.63;7382841;19;20046;-76
2022/06/08 07:22:20;;;;;;;13.02;6.72;;;;;;;18.69;95.01;100772.19;7385208;19;20483;-76
2022/06/08 07:24:51;;;;;;;11.98;7.10;;;;;;;18.76;93.13;100772.00;7380352;19;20043;-76
2022/06/08 07:27:22;;;;;;;14.13;7.13;;;;;;;18.62;91.80;100768.78;7384070;19;20022;-77
2022/06/08 07:29:55;;;;;;;14.85;6.93;;;;;;;18.70;92.66;100765.97;7381965;19;20010;-77
2022/06/08 07:32:29;;;;;;;11.48;6.32;;;;;;;18.58;89.80;100769.72;7383903;19;20048;-77
2022/06/08 07:34:59;;;;;;;15.20;7.47;;;;;;;18.40;89.31;100773.63;7381501;19;20022;-78
2022/06/08 07:37:29;;;;;;;10.23;6.18;;;;;;;18.59;90.51;100772.34;7381302;19;20011;-76
2022/06/08 07:39:59;;;;;;;11.63;6.38;;;;;;;18.64;91.49;100755.47;7383140;19;20018;-78
2022/06/08 07:42:28;;;;;;;13.73;7.72;;;;;;;18.37;91.81;100765.72;7384053;19;20090;-76
2022/06/08 07:45:01;;;;;;;13.93;7.20;;;;;;;18.58;90.81;100762.63;7384245;19;20011;-76
2022/06/08 07:47:30;;;;;;;14.25;7.28;;;;;;;18.42;92.14;100769.16;7383869;19;20064;-76
2022/06/08 07:49:58;;;;;;;13.73;7.90;;;;;;;18.47;91.27;100769.94;7381984;19;20014;-75
2022/06/08 07:52:28;;;;;;;12.07;7.57;;;;;;;18.49;92.14;100765.47;7383428;19;20393;-76
2022/06/08 07:54:57;;;;;;;12.63;7.32;;;;;;;18.79;91.30;100771.91;7378492;19;20018;-75
2022/06/08 07:57:32;;;;;;;11.27;7.00;;;;;;;19.16;90.43;100764.00;7380674;19;20015;-76
2022/06/08 08:00:06;;;;;;;15.40;9.70;;;;;;;18.50;90.24;100764.56;7382366;19;20019;-77
2022/06/08 08:02:36;;;;;;;16.88;10.15;;;;;;;19.24;88.13;100763.81;7383828;19;20021;-79
2022/06/08 08:05:09;;;;;;;15.40;10.88;;;;;;;19.74;86.04;100761.75;7381491;19;20014;-75
2022/06/08 08:07:39;;;;;;;13.77;10.00;;;;;;;20.50;82.70;100751.69;7381385;19;20014;-75
2022/06/08 08:10:15;;;;;;;13.73;9.65;;;;;;;21.21;81.25;100746.84;7377741;19;20062;-74
2022/06/08 08:12:45;;;;;;;15.82;9.70;;;;;;;20.94;79.06;100757.44;7382684;19;20014;-74
2022/06/08 08:15:19;;;;;;;12.70;8.80;;;;;;;20.91;77.11;100755.75;7378868;19;20042;-74
2022/06/08 08:17:48;;;;;;;12.13;8.43;;;;;;;20.60;79.28;100746.97;7382233;19;20590;-74
2022/06/08 08:20:20;;;;;;;14.05;8.93;;;;;;;20.72;78.87;100755.47;7378769;19;20015;-74
2022/06/08 08:22:50;;;;;;;14.00;9.05;;;;;;;20.62;80.77;100756.66;7379622;19;20043;-74
2022/06/08 08:25:22;;;;;;;11.68;8.30;;;;;;;20.81;80.26;100747.16;7380645;19;20023;-74
2022/06/08 08:27:52;;;;;;;13.63;7.88;;;;;;;20.25;79.87;100751.47;7383806;19;20019;-73
2022/06/08 08:30:27;;;;;;;10.80;7.65;;;;;;;20.49;79.04;100755.25;7381322;19;20018;-74
2022/06/08 08:32:58;;;;;;;10.35;7.35;;;;;;;20.60;77.88;100747.84;7380708;19;20063;-74
2022/06/08 08:35:28;;;;;;;15.30;8.20;;;;;;;20.75;78.89;100749.16;7380283;19;20058;-77
2022/06/08 08:38:00;;;;;;;11.18;7.72;;;;;;;20.64;78.71;100749.50;7379931;19;20046;-76
2022/06/08 08:40:44;;;;;;;14.13;8.48;;;;;;;20.30;80.17;100748.69;7381563;19;20011;-77
2022/06/08 08:43:21;;;;;;;12.48;8.60;;;;;;;20.36;80.38;100749.38;7379805;19;20010;-75
2022/06/08 08:46:15;;;;;;;12.07;8.75;;;;;;;20.39;79.14;100753.78;7380029;19;20048;-77
2022/06/08 08:48:54;;;;;;;16.38;9.27;;;;;;;19.58;83.32;100758.59;7377427;19;20014;-78
2022/06/08 08:51:28;;;;;;;14.07;8.60;;;;;;;19.92;82.86;100748.81;7376163;19;20018;-76
2022/06/08 08:54:06;;;;;;;;;;;;;;;19.62;84.51;100752.28;7376402;19;20014;-75
2022/06/08 08:56:39;;;;;;;12.57;7.63;;;;;;;19.33;85.72;100760.06;7378941;19;20295;-77
2022/06/08 08:59:15;;;;;;;13.60;5.80;;;;;;;19.56;84.66;100755.97;7377863;19;20042;-77
2022/06/08 09:01:52;;;;;;;11.77;6.50;;;;;;;19.20;89.04;100762.16;7378851;19;20491;-75
2022/06/08 09:04:31;;;;;;;10.13;7.00;;;;;;;19.25;90.08;100766.44;7378801;19;20067;-77
2022/06/08 09:07:06;;;;;;;14.65;7.18;;;;;;;19.06;91.60;100764.25;7379410;19;20520;-77
2022/06/08 09:09:37;;;;;;;10.35;6.03;;;;;;;18.93;92.95;100766.31;7384792;19;20018;-77
2022/06/08 09:12:07;;;;;;;10.93;5.97;;;;;;;18.65;96.50;100765.19;7384757;19;20180;-76
2022/06/08 09:14:57;;;;;;;10.50;5.75;;;;;;;18.88;97.96;100763.75;7387031;19;20003;-76
2022/06/08 09:17:37;;;;;;;8.55;6.30;;;;;;;18.66;100.00;100765.16;7384187;19;20594;-76
2022/06/08 09:20:26;;;;;;;14.15;7.63;;;;;;;18.21;100.00;100769.56;7383159;19;20052;-76
2022/06/08 09:22:57;;;;;;;12.27;7.95;;;;;;;18.08;100.00;100766.28;7387178;19;20011;-77
2022/06/08 09:25:31;;;;;;;12.02;7.00;;;;;;;17.79;100.00;100769.44;7389989;19;20569;-77
2022/06/08 09:28:02;;;;;;;12.52;7.10;;;;;;;17.74;100.00;100773.06;7385070;19;20010;-82
2022/06/08 09:30:34;;;;;;;14.60;7.38;;;;;;;17.49;100.00;100764.66;7387186;19;20048;-79
2022/06/08 09:33:26;;;;;;;17.60;7.05;;;;;;;17.52;100.00;100770.78;7385359;19;20014;-82
2022/06/08 09:35:59;;;;;;;9.98;6.07;;;;;;;17.52;100.00;100765.47;7389494;19;20045;-82
2022/06/08 09:38:31;;;;;;;12.77;6.80;;;;;;;17.40;100.00;100764.81;7386853;19;20023;-79
2022/06/08 09:41:06;;;;;;;13.73;5.70;;;;;;;17.09;100.00;100759.97;7384795;19;20014;-79
2022/06/08 09:43:51;;;;;;;10.02;5.97;;;;;;;17.07;100.00;100761.75;7384957;19;20009;-79
2022/06/08 09:51:25;;;;;;;11.45;6.07;;;;;;;16.73;100.00;100758.69;7388046;19;20014;-79
2022/06/08 09:52:34;;;;;;;13.73;5.68;;;;;;;16.80;100.00;100767.44;7382602;19;20048;-79
2022/06/08 09:55:16;;;;;;;11.15;5.55;;;;;;;16.91;100.00;100768.16;7381823;19;20011;-81
2022/06/08 09:57:58;;;;;;;15.40;5.75;;;;;;;16.48;100.00;100771.38;7384469;19;20019;-78
2022/06/08 10:00:35;;;;;;;9.18;4.75;;;;;;;16.70;100.00;100771.09;7384749;19;20044;-78
2022/06/08 10:03:23;;;;;;;9.13;4.90;;;;;;;16.56;100.00;100772.16;7387129;19;20093;-74
2022/06/08 10:06:04;;;;;;;13.10;3.75;;;;;;;16.39;100.00;100784.72;7386081;19;20018;-74
2022/06/08 10:08:47;;;;;;;8.13;3.40;;;;;;;16.13;100.00;100779.69;7387393;19;20506;-74
2022/06/08 10:14:18;;;;;;;10.45;3.03;;;;;;;15.96;100.00;100776.34;7383303;19;20123;-75
2022/06/08 10:16:51;;;;;;;7.25;2.83;;;;;;;15.97;100.00;100775.44;7379142;19;20019;-75
2022/06/08 10:19:29;;;;;;;5.85;3.13;;;;;;;16.05;100.00;100768.31;7383117;19;20182;-74
2022/06/08 10:22:04;;;;;;;7.38;3.20;;;;;;;16.04;100.00;100766.56;7383961;19;20459;-75
2022/06/08 10:24:47;;;;;;;8.20;3.60;;;;;;;16.09;100.00;100777.09;7381362;19;20146;-75
2022/06/08 10:27:23;;;;;;;7.57;2.95;;;;;;;15.95;100.00;100772.81;7378461;19;20086;-74
2022/06/08 10:30:04;;;;;;;9.43;3.78;;;;;;;15.89;100.00;100775.53;7384938;19;20326;-75
2022/06/08 10:32:39;;;;;;;8.82;3.45;;;;;;;15.83;100.00;100767.66;7383771;19;20014;-76
2022/06/08 10:35:24;;;;;;;10.18;3.80;;;;;;;15.76;100.00;100773.88;7384488;19;20018;-76
2022/06/08 10:37:58;;;;;;;8.82;3.42;;;;;;;15.89;100.00;100767.59;7381614;19;20044;-76
2022/06/08 10:40:36;;;;;;;12.32;4.32;;;;;;;15.85;100.00;100784.38;7380982;19;20026;-76
2022/06/08 10:43:06;;;;;;;10.18;3.53;;;;;;;15.74;100.00;100785.38;7383510;19;20034;-76
2022/06/08 10:45:44;;;;;;;10.30;3.83;;;;;;;15.56;100.00;100775.81;7383227;19;20014;-76
2022/06/08 10:48:37;;;;;;;8.02;3.40;;;;;;;15.74;100.00;100782.72;7384484;19;20011;-76
2022/06/08 10:51:26;;;;;;;6.57;3.05;;;;;;;15.82;100.00;100775.59;7382657;19;20418;-76
2022/06/08 10:56:58;;;;;;;10.57;3.42;;;;;;;15.77;100.00;100765.06;7384583;19;20027;-75
2022/06/08 10:59:31;;;;;;;7.97;3.40;;;;;;;15.68;100.00;100778.34;7381815;19;20014;-75
2022/06/08 11:02:30;;;;;;;7.28;3.20;;;;;;;15.37;100.00;100775.97;7381699;19;20015;-74
2022/06/08 11:05:18;;;;;;;8.27;3.42;;;;;;;15.38;100.00;100775.06;7381544;19;20038;-76
2022/06/08 11:08:20;;;;;;;8.40;3.22;;;;;;;15.44;100.00;100781.19;7383651;19;20010;-76
2022/06/08 11:11:01;;;;;;;9.80;3.22;;;;;;;15.32;100.00;100774.25;7378595;19;20006;-77
2022/06/08 11:13:39;;;;;;;10.52;4.05;;;;;;;15.27;100.00;100770.75;7377486;19;20513;-76
2022/06/08 11:16:17;;;;;;;7.78;3.13;;;;;;;15.35;100.00;100775.09;7379683;19;20030;-77
2022/06/08 11:18:53;;;;;;;7.40;3.65;;;;;;;15.41;100.00;100768.00;7380784;19;20022;-79
2022/06/08 11:21:43;;;;;;;5.88;2.90;;;;;;;15.41;100.00;100760.09;7382519;19;20043;-79
2022/06/08 11:24:23;;;;;;;10.40;3.83;;;;;;;15.35;100.00;100766.28;7384380;19;20432;-78
2022/06/08 11:27:24;;;;;;;8.35;3.90;;;;;;;15.23;100.00;100761.97;7381933;19;20017;-78
2022/06/08 11:29:55;;;;;;;9.80;3.65;;;;;;;15.07;100.00;100770.88;7379059;19;20102;-78
